sensor_id;sensor_type;location;lat;lon;timestamp;P1;durP1;ratioP1;P2;durP2;ratioP2
17173;SDS011;8702;48.130;-1.696;2024-01-30T17:50:35;2.10;;;1.25;;
17173;SDS011;8702;48.130;-1.696;2024-01-30T17:53:02;2.53;;;1.30;;
17173;SDS011;8702;48.130;-1.696;2024-01-30T17:55:29;2.93;;;1.20;;
17173;SDS011;8702;48.130;-1.696;2024-01-30T17:57:56;3.58;;;1.25;;
17173;SDS011;8702;48.130;-1.696;2024-01-30T18:00:23;5.10;;;1.50;;
17173;SDS011;8702;48.130;-1.696;2024-01-30T18:02:51;2.35;;;1.40;;
17173;SDS011;8702;48.130;-1.696;2024-01-30T18:05:20;2.40;;;1.13;;
17173;SDS011;8702;48.130;-1.696;2024-01-30T18:07:49;3.40;;;1.30;;
17173;SDS011;8702;48.130;-1.696;2024-01-30T18:10:16;4.40;;;1.55;;
17173;SDS011;8702;48.130;-1.696;2024-01-30T18:12:44;2.60;;;1.52;;
17173;SDS011;8702;48.130;-1.696;2024-01-30T18:15:11;5.43;;;1.80;;
17173;SDS011;8702;48.130;-1.696;2024-01-30T18:17:38;4.30;;;2.22;;
17173;SDS011;8702;48.130;-1.696;2024-01-30T18:20:06;5.15;;;2.00;;
17173;SDS011;8702;48.130;-1.696;2024-01-30T18:22:33;4.13;;;1.98;;
17173;SDS011;8702;48.130;-1.696;2024-01-30T18:25:01;6.07;;;2.40;;
17173;SDS011;8702;48.130;-1.696;2024-01-30T18:27:29;4.45;;;2.50;;
17173;SDS011;8702;48.130;-1.696;2024-01-30T18:29:56;6.55;;;2.20;;
17173;SDS011;8702;48.130;-1.696;2024-01-30T18:32:23;4.40;;;1.80;;
17173;SDS011;8702;48.130;-1.696;2024-01-30T18:34:50;2.70;;;1.60;;
17173;SDS011;8702;48.130;-1.696;2024-01-30T18:37:17;2.85;;;1.80;;
17173;SDS011;8702;48.130;-1.696;2024-01-30T18:39:45;6.07;;;1.90;;
17173;SDS011;8702;48.130;-1.696;2024-01-30T18:42:13;4.68;;;1.90;;
17173;SDS011;8702;48.130;-1.696;2024-01-30T18:44:42;5.38;;;2.20;;
17173;SDS011;8702;48.130;-1.696;2024-01-30T18:47:09;5.15;;;2.40;;
17173;SDS011;8702;48.130;-1.696;2024-01-30T18:49:36;5.40;;;2.45;;
17173;SDS011;8702;48.130;-1.696;2024-01-30T18:52:04;4.87;;;2.70;;
17173;SDS011;8702;48.130;-1.696;2024-01-30T18:54:31;5.03;;;2.70;;
17173;SDS011;8702;48.130;-1.696;2024-01-30T18:56:58;12.55;;;7.70;;
17173;SDS011;8702;48.130;-1.696;2024-01-30T18:59:26;11.90;;;7.20;;
17173;SDS011;8702;48.130;-1.696;2024-01-30T19:01:53;11.07;;;4.85;;
17173;SDS011;8702;48.130;-1.696;2024-01-30T19:04:20;10.35;;;5.20;;
17173;SDS011;8702;48.130;-1.696;2024-01-30T19:06:48;7.85;;;3.80;;
17173;SDS011;8702;48.130;-1.696;2024-01-30T19:09:16;7.97;;;3.78;;
17173;SDS011;8702;48.130;-1.696;2024-01-30T19:11:44;5.82;;;4.03;;
17173;SDS011;8702;48.130;-1.696;2024-01-30T19:14:11;9.02;;;5.22;;
17173;SDS011;8702;48.130;-1.696;2024-01-30T19:16:39;7.15;;;4.93;;
17173;SDS011;8702;48.130;-1.696;2024-01-30T19:19:06;6.20;;;4.43;;
17173;SDS011;8702;48.130;-1.696;2024-01-30T19:21:33;6.67;;;4.60;;
17173;SDS011;8702;48.130;-1.696;2024-01-30T19:24:01;8.45;;;4.53;;
17173;SDS011;8702;48.130;-1.696;2024-01-30T19:26:29;7.03;;;5.10;;
17173;SDS011;8702;48.130;-1.696;2024-01-30T19:28:56;16.67;;;8.55;;
17173;SDS011;8702;48.130;-1.696;2024-01-30T19:31:23;15.70;;;10.40;;
17173;SDS011;8702;48.130;-1.696;2024-01-30T19:33:52;14.57;;;7.93;;
17173;SDS011;8702;48.130;-1.696;2024-01-30T19:36:19;7.68;;;4.70;;
17173;SDS011;8702;48.130;-1.696;2024-01-30T19:38:46;7.90;;;4.93;;
17173;SDS011;8702;48.130;-1.696;2024-01-30T19:41:13;7.90;;;5.22;;
17173;SDS011;8702;48.130;-1.696;2024-01-30T19:43:41;9.98;;;5.40;;
17173;SDS011;8702;48.130;-1.696;2024-01-30T19:46:08;13.47;;;6.77;;
17173;SDS011;8702;48.130;-1.696;2024-01-30T19:48:35;10.07;;;6.30;;
17173;SDS011;8702;48.130;-1.696;2024-01-30T19:51:04;12.50;;;6.72;;
17173;SDS011;8702;48.130;-1.696;2024-01-30T19:53:33;13.00;;;6.60;;
17173;SDS011;8702;48.130;-1.696;2024-01-30T19:56:00;13.65;;;6.70;;
17173;SDS011;8702;48.130;-1.696;2024-01-30T19:58:29;11.87;;;7.43;;
17173;SDS011;8702;48.130;-1.696;2024-01-30T20:00:56;13.88;;;7.75;;
17173;SDS011;8702;48.130;-1.696;2024-01-30T20:03:23;12.57;;;7.40;;
17173;SDS011;8702;48.130;-1.696;2024-01-30T20:05:50;13.77;;;8.57;;
17173;SDS011;8702;48.130;-1.696;2024-01-30T20:08:19;16.45;;;9.23;;
17173;SDS011;8702;48.130;-1.696;2024-01-30T20:10:46;17.27;;;11.15;;
17173;SDS011;8702;48.130;-1.696;2024-01-30T20:13:13;17.60;;;11.00;;
17173;SDS011;8702;48.130;-1.696;2024-01-30T20:15:40;16.95;;;11.20;;
17173;SDS011;8702;48.130;-1.696;2024-01-30T20:18:07;14.25;;;9.90;;
17173;SDS011;8702;48.130;-1.696;2024-01-30T20:20:35;12.45;;;9.18;;
17173;SDS011;8702;48.130;-1.696;2024-01-30T20:23:03;13.38;;;9.23;;
17173;SDS011;8702;48.130;-1.696;2024-01-30T20:25:32;14.38;;;8.60;;
17173;SDS011;8702;48.130;-1.696;2024-01-30T20:27:59;14.00;;;9.43;;
17173;SDS011;8702;48.130;-1.696;2024-01-30T20:30:26;18.98;;;11.48;;
17173;SDS011;8702;48.130;-1.696;2024-01-30T20:32:53;14.25;;;8.95;;
17173;SDS011;8702;48.130;-1.696;2024-01-30T20:35:20;11.27;;;8.47;;
17173;SDS011;8702;48.130;-1.696;2024-01-30T20:37:47;13.10;;;8.98;;
17173;SDS011;8702;48.130;-1.696;2024-01-30T20:40:16;14.43;;;9.30;;
17173;SDS011;8702;48.130;-1.696;2024-01-30T20:42:45;17.33;;;9.85;;
17173;SDS011;8702;48.130;-1.696;2024-01-30T20:45:13;16.30;;;10.98;;
17173;SDS011;8702;48.130;-1.696;2024-01-30T20:47:40;16.90;;;11.27;;
17173;SDS011;8702;48.130;-1.696;2024-01-30T20:50:08;15.57;;;10.80;;
17173;SDS011;8702;48.130;-1.696;2024-01-30T20:52:35;15.32;;;10.55;;
17173;SDS011;8702;48.130;-1.696;2024-01-30T20:55:02;15.97;;;12.37;;
17173;SDS011;8702;48.130;-1.696;2024-01-30T20:57:29;21.42;;;14.77;;
17173;SDS011;8702;48.130;-1.696;2024-01-30T20:59:58;19.48;;;15.55;;
17173;SDS011;8702;48.130;-1.696;2024-01-30T21:02:25;21.25;;;16.65;;
17173;SDS011;8702;48.130;-1.696;2024-01-30T21:04:52;20.23;;;14.95;;
17173;SDS011;8702;48.130;-1.696;2024-01-30T21:07:18;16.60;;;13.33;;
17173;SDS011;8702;48.130;-1.696;2024-01-30T21:09:46;16.13;;;11.43;;
17173;SDS011;8702;48.130;-1.696;2024-01-30T21:12:14;14.93;;;10.87;;
17173;SDS011;8702;48.130;-1.696;2024-01-30T21:14:41;14.48;;;10.40;;
17173;SDS011;8702;48.130;-1.696;2024-01-30T21:17:10;13.88;;;9.45;;
17173;SDS011;8702;48.130;-1.696;2024-01-30T21:19:37;12.40;;;9.30;;
17173;SDS011;8702;48.130;-1.696;2024-01-30T21:22:04;12.20;;;8.35;;
17173;SDS011;8702;48.130;-1.696;2024-01-30T21:24:31;9.73;;;7.38;;
17173;SDS011;8702;48.130;-1.696;2024-01-30T21:26:58;11.03;;;8.00;;
17173;SDS011;8702;48.130;-1.696;2024-01-30T21:29:25;11.43;;;7.35;;
17173;SDS011;8702;48.130;-1.696;2024-01-30T21:31:52;11.15;;;7.93;;
17173;SDS011;8702;48.130;-1.696;2024-01-30T21:34:21;12.02;;;8.02;;
17173;SDS011;8702;48.130;-1.696;2024-01-30T21:36:48;12.00;;;7.60;;
17173;SDS011;8702;48.130;-1.696;2024-01-30T21:39:15;10.43;;;7.70;;
17173;SDS011;8702;48.130;-1.696;2024-01-30T21:41:42;11.63;;;7.65;;
17173;SDS011;8702;48.130;-1.696;2024-01-30T21:44:10;11.20;;;7.72;;
17173;SDS011;8702;48.130;-1.696;2024-01-30T21:46:37;9.80;;;7.30;;
17173;SDS011;8702;48.130;-1.696;2024-01-30T21:49:04;12.20;;;8.35;;
17173;SDS011;8702;48.130;-1.696;2024-01-30T21:51:33;12.82;;;8.38;;
17173;SDS011;8702;48.130;-1.696;2024-01-30T21:54:00;13.93;;;8.98;;
17173;SDS011;8702;48.130;-1.696;2024-01-30T21:56:28;11.55;;;9.05;;
17173;SDS011;8702;48.130;-1.696;2024-01-30T21:58:55;12.93;;;8.63;;
17173;SDS011;8702;48.130;-1.696;2024-01-30T22:01:22;14.05;;;8.40;;
17173;SDS011;8702;48.130;-1.696;2024-01-30T22:03:49;11.45;;;7.45;;
17173;SDS011;8702;48.130;-1.696;2024-01-30T22:06:17;12.77;;;7.43;;
17173;SDS011;8702;48.130;-1.696;2024-01-30T22:08:46;10.73;;;6.60;;
17173;SDS011;8702;48.130;-1.696;2024-01-30T22:11:13;13.50;;;7.28;;
17173;SDS011;8702;48.130;-1.696;2024-01-30T22:13:40;11.57;;;6.97;;
17173;SDS011;8702;48.130;-1.696;2024-01-30T22:16:07;10.93;;;7.07;;
17173;SDS011;8702;48.130;-1.696;2024-01-30T22:18:34;11.02;;;7.43;;
17173;SDS011;8702;48.130;-1.696;2024-01-30T22:21:02;9.67;;;6.90;;
17173;SDS011;8702;48.130;-1.696;2024-01-30T22:23:32;12.95;;;7.47;;
17173;SDS011;8702;48.130;-1.696;2024-01-30T22:26:01;11.03;;;7.23;;
17173;SDS011;8702;48.130;-1.696;2024-01-30T22:28:28;13.80;;;7.72;;
17173;SDS011;8702;48.130;-1.696;2024-01-30T22:30:55;13.18;;;7.78;;
17173;SDS011;8702;48.130;-1.696;2024-01-30T22:33:22;14.75;;;8.45;;
17173;SDS011;8702;48.130;-1.696;2024-01-30T22:35:50;15.95;;;9.10;;
17173;SDS011;8702;48.130;-1.696;2024-01-30T22:38:17;11.73;;;8.63;;
17173;SDS011;8702;48.130;-1.696;2024-01-30T22:40:45;14.30;;;9.70;;
17173;SDS011;8702;48.130;-1.696;2024-01-30T22:43:13;14.55;;;9.55;;
17173;SDS011;8702;48.130;-1.696;2024-01-30T22:45:40;12.85;;;8.73;;
17173;SDS011;8702;48.130;-1.696;2024-01-30T22:48:08;16.45;;;8.88;;
17173;SDS011;8702;48.130;-1.696;2024-01-30T22:50:35;11.83;;;8.70;;
17173;SDS011;8702;48.130;-1.696;2024-01-30T22:53:02;12.85;;;8.60;;
17173;SDS011;8702;48.130;-1.696;2024-01-30T22:55:30;13.70;;;8.55;;
17173;SDS011;8702;48.130;-1.696;2024-01-30T22:57:57;13.98;;;8.48;;
17173;SDS011;8702;48.130;-1.696;2024-01-30T23:00:25;13.52;;;8.70;;
17173;SDS011;8702;48.130;-1.696;2024-01-30T23:02:53;12.63;;;7.05;;
17173;SDS011;8702;48.130;-1.696;2024-01-30T23:05:21;12.10;;;6.90;;
17173;SDS011;8702;48.130;-1.696;2024-01-30T23:07:49;11.47;;;6.73;;
17173;SDS011;8702;48.130;-1.696;2024-01-30T23:10:16;13.80;;;7.40;;
17173;SDS011;8702;48.130;-1.696;2024-01-30T23:12:44;14.15;;;7.95;;
17173;SDS011;8702;48.130;-1.696;2024-01-30T23:15:11;13.23;;;8.48;;
17173;SDS011;8702;48.130;-1.696;2024-01-30T23:17:40;14.93;;;8.95;;
17173;SDS011;8702;48.130;-1.696;2024-01-30T23:20:07;16.55;;;8.77;;
17173;SDS011;8702;48.130;-1.696;2024-01-30T23:22:35;15.07;;;8.65;;
17173;SDS011;8702;48.130;-1.696;2024-01-30T23:25:05;14.35;;;8.45;;
17173;SDS011;8702;48.130;-1.696;2024-01-30T23:27:32;16.73;;;8.53;;
17173;SDS011;8702;48.130;-1.696;2024-01-30T23:29:59;13.55;;;8.70;;
17173;SDS011;8702;48.130;-1.696;2024-01-30T23:32:26;14.82;;;8.48;;
17173;SDS011;8702;48.130;-1.696;2024-01-30T23:34:55;14.20;;;9.03;;
17173;SDS011;8702;48.130;-1.696;2024-01-30T23:37:22;14.68;;;8.43;;
17173;SDS011;8702;48.130;-1.696;2024-01-30T23:39:49;15.90;;;8.43;;
17173;SDS011;8702;48.130;-1.696;2024-01-30T23:42:17;14.77;;;8.80;;
17173;SDS011;8702;48.130;-1.696;2024-01-30T23:44:44;14.43;;;9.10;;
17173;SDS011;8702;48.130;-1.696;2024-01-30T23:47:11;13.77;;;8.88;;
17173;SDS011;8702;48.130;-1.696;2024-01-30T23:49:38;15.57;;;8.83;;
17173;SDS011;8702;48.130;-1.696;2024-01-30T23:52:07;16.20;;;9.57;;
17173;SDS011;8702;48.130;-1.696;2024-01-30T23:54:34;15.77;;;9.25;;
17173;SDS011;8702;48.130;-1.696;2024-01-30T23:57:01;14.50;;;8.73;;
17173;SDS011;8702;48.130;-1.696;2024-01-30T23:59:28;13.40;;;8.82;;
